createdAt,value
2019-04-20T00:01:28.712Z,12.50
2019-04-20T00:03:53.743Z,11.18
2019-04-20T00:06:22.340Z,11.83
2019-04-20T00:08:58.688Z,11.88
2019-04-20T00:11:28.364Z,11.00
2019-04-20T00:14:01.333Z,12.05
2019-04-20T00:16:23.090Z,12.55
2019-04-20T00:18:55.655Z,13.25
2019-04-20T00:21:49.658Z,12.45
2019-04-20T00:24:23.358Z,12.55
2019-04-20T00:29:35.319Z,12.65
2019-04-20T00:32:01.618Z,13.10
2019-04-20T00:34:27.910Z,11.25
2019-04-20T00:36:49.774Z,12.47
2019-04-20T00:39:20.184Z,12.37
2019-04-20T00:41:56.216Z,14.33
2019-04-20T00:44:26.905Z,13.60
2019-04-20T00:47:03.170Z,12.55
2019-04-20T00:49:36.040Z,13.15
2019-04-20T00:52:21.201Z,12.80
2019-04-20T00:54:22.257Z,13.28
2019-04-20T00:56:53.178Z,13.55
2019-04-20T00:59:35.401Z,12.37
2019-04-20T01:02:10.315Z,13.65
2019-04-20T01:04:44.698Z,11.08
2019-04-20T01:07:15.232Z,12.73
2019-04-20T01:10:05.243Z,13.45
2019-04-20T01:12:36.544Z,12.88
2019-04-20T01:15:11.277Z,14.05
2019-04-20T01:17:41.409Z,13.53
2019-04-20T01:20:09.131Z,12.13
2019-04-20T01:22:44.363Z,12.95
2019-04-20T01:25:16.903Z,14.25
2019-04-20T01:27:59.086Z,13.08
2019-04-20T01:30:17.460Z,12.47
2019-04-20T01:32:58.539Z,15.18
2019-04-20T01:35:30.369Z,13.90
2019-04-20T01:38:04.182Z,15.10
2019-04-20T01:40:13.091Z,12.78
2019-04-20T01:42:42.582Z,13.20
2019-04-20T01:45:19.098Z,15.50
2019-04-20T01:47:46.161Z,16.02
2019-04-20T01:50:16.682Z,15.60
2019-04-20T01:52:55.029Z,14.47
2019-04-20T01:55:41.566Z,15.40
2019-04-20T01:58:22.062Z,15.60
2019-04-20T02:00:49.148Z,14.47
2019-04-20T02:03:40.533Z,14.18
2019-04-20T02:06:09.914Z,13.28
2019-04-20T02:08:35.852Z,15.58
2019-04-20T02:11:07.369Z,15.00
2019-04-20T02:13:43.580Z,15.95
2019-04-20T02:16:15.763Z,15.58
2019-04-20T02:18:57.968Z,15.93
2019-04-20T02:21:25.877Z,15.40
2019-04-20T02:23:46.203Z,15.23
2019-04-20T02:26:07.418Z,15.38
2019-04-20T02:29:00.768Z,17.45
2019-04-20T02:34:26.085Z,16.85
2019-04-20T02:36:58.015Z,16.65
2019-04-20T02:46:55.876Z,17.82
2019-04-20T03:01:45.564Z,18.95
2019-04-20T03:04:02.917Z,17.90
2019-04-20T03:06:40.009Z,19.45
2019-04-20T03:09:21.400Z,20.12
2019-04-20T03:11:58.203Z,19.27
2019-04-20T03:14:19.140Z,18.67
2019-04-20T03:16:45.821Z,18.80
2019-04-20T03:19:17.347Z,19.25
2019-04-20T03:22:02.366Z,17.48
2019-04-20T03:24:26.825Z,18.32
2019-04-20T03:27:10.835Z,17.02
2019-04-20T03:29:55.252Z,18.85
2019-04-20T03:32:50.083Z,17.42
2019-04-20T03:37:30.612Z,19.48
2019-04-20T03:39:47.609Z,17.65
2019-04-20T03:42:07.569Z,18.90
2019-04-20T03:44:38.904Z,17.50
2019-04-20T03:47:11.479Z,20.65
2019-04-20T03:50:00.245Z,19.25
2019-04-20T03:52:43.612Z,19.23
2019-04-20T03:55:19.905Z,18.27
2019-04-20T03:58:14.315Z,18.20
2019-04-20T04:00:58.282Z,17.42
2019-04-20T04:06:09.556Z,19.02
2019-04-20T04:08:35.365Z,19.37
2019-04-20T04:11:18.865Z,18.55
2019-04-20T04:13:27.303Z,17.80
2019-04-20T04:16:02.885Z,19.65
2019-04-20T04:18:33.310Z,20.43
2019-04-20T04:21:02.908Z,18.60
2019-04-20T04:23:49.120Z,17.87
2019-04-20T04:26:18.745Z,19.82
2019-04-20T04:28:43.402Z,18.85
2019-04-20T04:31:16.569Z,19.30
2019-04-20T04:33:55.941Z,19.40
2019-04-20T04:36:15.401Z,19.27
2019-04-20T04:39:01.042Z,19.95
2019-04-20T04:41:24.231Z,18.80
2019-04-20T04:43:51.744Z,19.30
2019-04-20T04:46:03.761Z,19.32
2019-04-20T04:48:38.419Z,19.35
2019-04-20T04:51:12.866Z,17.62
2019-04-20T04:53:45.215Z,17.87
2019-04-20T04:56:09.403Z,18.50
2019-04-20T04:58:36.288Z,18.15
2019-04-20T05:01:12.672Z,18.10
2019-04-20T05:03:57.715Z,17.35
2019-04-20T05:06:29.154Z,17.35
2019-04-20T05:08:49.914Z,17.60
2019-04-20T05:11:15.216Z,18.52
2019-04-20T05:13:50.581Z,16.93
2019-04-20T05:16:37.279Z,16.07
2019-04-20T05:19:10.496Z,17.73
2019-04-20T05:22:01.375Z,17.77
2019-04-20T05:24:31.238Z,15.80
2019-04-20T05:27:13.659Z,17.02
2019-04-20T05:29:25.034Z,14.78
2019-04-20T05:31:57.183Z,15.10
2019-04-20T05:34:45.366Z,15.10
2019-04-20T05:37:17.342Z,13.38
2019-04-20T05:39:46.525Z,13.50
2019-04-20T05:42:16.192Z,16.50
2019-04-20T05:44:46.107Z,16.55
2019-04-20T05:47:19.544Z,14.85
2019-04-20T05:49:41.491Z,14.38
2019-04-20T05:52:31.509Z,15.45
2019-04-20T05:54:48.973Z,13.78
2019-04-20T05:57:21.080Z,13.20
2019-04-20T05:59:57.181Z,15.20
2019-04-20T06:02:16.946Z,14.70
2019-04-20T06:04:59.959Z,14.58
2019-04-20T06:07:24.000Z,13.08
2019-04-20T06:09:54.438Z,12.75
2019-04-20T06:12:36.306Z,12.45
2019-04-20T06:14:53.700Z,13.08
2019-04-20T06:17:44.463Z,12.50
2019-04-20T06:20:21.556Z,12.43
2019-04-20T06:22:51.361Z,13.32
2019-04-20T06:25:40.818Z,12.68
2019-04-20T06:27:52.809Z,12.93
2019-04-20T06:30:21.912Z,11.95
2019-04-20T06:33:49.903Z,11.80
2019-04-20T06:38:53.909Z,13.22
2019-04-20T06:43:34.810Z,12.15
2019-04-20T06:46:09.775Z,13.38
2019-04-20T06:48:40.315Z,11.73
2019-04-20T06:50:58.112Z,11.70
2019-04-20T06:53:45.313Z,12.80
2019-04-20T06:56:15.768Z,12.05
2019-04-20T06:58:49.773Z,10.23
2019-04-20T07:01:23.587Z,11.03
2019-04-20T07:06:35.587Z,10.90
2019-04-20T07:08:58.137Z,10.72
2019-04-20T07:11:24.063Z,10.93
2019-04-20T07:13:41.259Z,9.80
2019-04-20T07:16:36.310Z,9.43
2019-04-20T07:19:16.825Z,10.58
2019-04-20T07:24:43.134Z,10.98
2019-04-20T07:27:00.741Z,10.23
2019-04-20T07:29:40.890Z,10.23
2019-04-20T07:31:58.802Z,9.75
2019-04-20T07:34:33.502Z,9.93
2019-04-20T07:38:01.338Z,9.60
2019-04-20T07:40:07.758Z,10.85
2019-04-20T07:42:51.815Z,10.58
2019-04-20T07:45:07.454Z,10.85
2019-04-20T07:47:40.494Z,10.80
2019-04-20T07:50:02.397Z,10.63
2019-04-20T07:52:16.420Z,10.30
2019-04-20T07:55:28.543Z,9.38
2019-04-20T07:57:35.031Z,9.33
2019-04-20T08:00:08.445Z,10.32
2019-04-20T08:02:57.233Z,10.80
2019-04-20T08:05:36.934Z,10.03
2019-04-20T08:08:14.845Z,9.45
2019-04-20T08:10:39.377Z,10.25
2019-04-20T08:13:25.154Z,9.90
2019-04-20T08:15:51.213Z,10.60
2019-04-20T08:18:21.379Z,9.93
2019-04-20T08:20:47.567Z,9.83
2019-04-20T08:23:17.249Z,11.10
2019-04-20T08:25:44.610Z,8.95
2019-04-20T08:28:06.339Z,9.18
2019-04-20T08:31:02.463Z,9.88
2019-04-20T08:33:36.650Z,9.85
2019-04-20T08:36:10.757Z,9.55
2019-04-20T08:39:09.621Z,8.63
2019-04-20T08:41:09.700Z,10.55
2019-04-20T08:43:47.037Z,9.80
2019-04-20T08:46:17.753Z,10.78
2019-04-20T08:48:40.831Z,9.70
2019-04-20T08:51:16.321Z,9.23
2019-04-20T08:53:45.071Z,9.80
2019-04-20T08:56:09.826Z,8.80
2019-04-20T08:58:24.898Z,10.53
2019-04-20T09:00:58.701Z,10.03
2019-04-20T09:03:30.156Z,10.00
2019-04-20T09:06:03.533Z,9.75
2019-04-20T09:08:30.804Z,10.05
2019-04-20T09:11:16.881Z,9.93
2019-04-20T09:13:34.294Z,10.50
2019-04-20T09:15:57.917Z,9.85
2019-04-20T09:18:43.355Z,9.98
2019-04-20T09:21:19.938Z,9.83
2019-04-20T09:23:57.915Z,9.30
2019-04-20T09:26:32.758Z,9.58
2019-04-20T09:29:06.883Z,8.80
2019-04-20T09:31:48.646Z,10.05
2019-04-20T09:34:33.756Z,9.20
2019-04-20T09:37:17.894Z,9.30
2019-04-20T09:39:46.118Z,9.15
2019-04-20T09:42:21.101Z,8.33
2019-04-20T09:44:55.549Z,10.23
2019-04-20T09:47:27.440Z,9.73
2019-04-20T09:50:02.719Z,9.53
2019-04-20T09:52:31.252Z,9.20
2019-04-20T09:55:06.910Z,8.50
2019-04-20T09:57:37.962Z,7.65
2019-04-20T10:00:08.674Z,8.65
2019-04-20T10:02:27.771Z,8.60
2019-04-20T10:04:53.776Z,8.20
2019-04-20T10:07:26.149Z,8.53
2019-04-20T10:09:53.867Z,7.90
2019-04-20T10:12:24.068Z,7.70
2019-04-20T10:14:53.265Z,8.75
2019-04-20T10:17:23.446Z,8.48
2019-04-20T10:19:53.690Z,8.18
2019-04-20T10:22:22.597Z,8.18
2019-04-20T10:24:52.659Z,9.15
2019-04-20T10:27:21.726Z,9.03
2019-04-20T10:29:51.443Z,9.65
2019-04-20T10:32:25.088Z,9.10
2019-04-20T10:34:50.729Z,9.15
2019-04-20T10:37:23.866Z,8.68
2019-04-20T10:39:52.840Z,8.85
2019-04-20T10:42:21.792Z,8.28
2019-04-20T10:44:54.931Z,8.88
2019-04-20T10:47:21.168Z,7.97
2019-04-20T10:49:50.901Z,8.75
2019-04-20T10:52:20.202Z,8.58
2019-04-20T10:54:50.275Z,8.58
2019-04-20T10:57:19.522Z,8.70
2019-04-20T10:59:48.278Z,8.33
2019-04-20T11:02:16.943Z,9.03
2019-04-20T11:04:46.464Z,8.98
2019-04-20T11:07:16.362Z,8.90
2019-04-20T11:09:46.977Z,8.20
2019-04-20T11:12:16.600Z,8.30
2019-04-20T11:14:45.757Z,8.55
2019-04-20T11:17:14.555Z,9.13
2019-04-20T11:19:43.416Z,8.50
2019-04-20T11:22:12.516Z,8.40
2019-04-20T11:24:41.418Z,7.67
2019-04-20T11:27:10.108Z,8.10
2019-04-20T11:29:40.273Z,7.67
2019-04-20T11:32:10.335Z,9.00
2019-04-20T11:34:40.846Z,8.30
2019-04-20T11:37:11.027Z,9.05
2019-04-20T11:39:41.054Z,8.98
2019-04-20T11:42:10.105Z,8.68
2019-04-20T11:44:38.858Z,8.38
2019-04-20T11:47:08.458Z,8.70
2019-04-20T11:49:37.606Z,8.43
2019-04-20T11:52:07.653Z,7.37
2019-04-20T11:54:36.662Z,8.00
2019-04-20T11:57:06.956Z,7.50
2019-04-20T11:59:37.138Z,7.37
2019-04-20T12:02:30.147Z,8.80
2019-04-20T12:05:13.219Z,9.08
2019-04-20T12:07:35.256Z,7.60
2019-04-20T12:10:09.067Z,8.28
2019-04-20T12:12:41.229Z,7.65
2019-04-20T12:15:04.955Z,8.03
2019-04-20T12:17:33.637Z,8.33
2019-04-20T12:20:02.370Z,8.18
2019-04-20T12:22:32.350Z,8.48
2019-04-20T12:25:02.460Z,8.43
2019-04-20T12:27:32.431Z,8.23
2019-04-20T12:30:01.796Z,8.18
2019-04-20T12:32:38.602Z,7.78
2019-04-20T12:35:02.564Z,8.68
2019-04-20T12:37:31.376Z,8.08
2019-04-20T12:40:00.800Z,8.13
2019-04-20T12:42:30.789Z,7.78
2019-04-20T12:44:59.703Z,8.75
2019-04-20T12:47:28.376Z,8.48
2019-04-20T12:49:57.090Z,7.95
2019-04-20T12:52:26.300Z,7.25
2019-04-20T12:54:55.026Z,7.65
2019-04-20T12:57:24.754Z,6.72
2019-04-20T12:59:54.096Z,7.00
2019-04-20T13:02:23.197Z,7.12
2019-04-20T13:04:53.290Z,7.30
2019-04-20T13:07:22.963Z,7.95
2019-04-20T13:09:52.744Z,7.92
2019-04-20T13:12:32.088Z,7.05
2019-04-20T13:15:34.189Z,7.05
2019-04-20T13:18:03.653Z,9.20
2019-04-20T13:20:32.459Z,7.78
2019-04-20T13:23:03.650Z,7.20
2019-04-20T13:25:32.647Z,7.28
2019-04-20T13:28:03.067Z,9.10
2019-04-20T13:30:32.298Z,8.23
2019-04-20T13:33:01.708Z,8.20
2019-04-20T13:35:30.581Z,8.53
2019-04-20T13:38:00.306Z,7.87
2019-04-20T13:40:31.045Z,10.30
2019-04-20T13:42:59.968Z,8.25
2019-04-20T13:45:28.823Z,7.87
2019-04-20T13:47:57.434Z,8.38
2019-04-20T13:50:26.347Z,8.55
2019-04-20T13:52:55.300Z,8.48
2019-04-20T13:55:26.907Z,8.48
2019-04-20T13:58:04.230Z,7.17
2019-04-20T14:01:08.499Z,7.50
2019-04-20T14:03:38.744Z,7.10
2019-04-20T14:06:08.900Z,9.00
2019-04-20T14:08:39.250Z,7.33
2019-04-20T14:11:09.367Z,8.55
2019-04-20T14:13:45.064Z,8.05
2019-04-20T14:16:09.175Z,8.55
2019-04-20T14:18:38.042Z,7.95
2019-04-20T14:21:08.033Z,9.30
2019-04-20T14:23:37.061Z,9.35
2019-04-20T14:26:07.013Z,9.33
2019-04-20T14:28:36.742Z,9.48
2019-04-20T14:31:05.860Z,8.70
2019-04-20T14:33:34.897Z,9.53
2019-04-20T14:36:03.659Z,8.65
2019-04-20T14:38:32.353Z,9.15
2019-04-20T14:41:02.239Z,9.08
2019-04-20T14:43:32.945Z,9.68
2019-04-20T14:46:02.950Z,8.68
2019-04-20T14:48:31.863Z,8.78
2019-04-20T14:51:01.506Z,8.15
2019-04-20T14:53:31.484Z,7.97
2019-04-20T14:56:01.750Z,8.63
2019-04-20T14:58:45.242Z,8.90
2019-04-20T15:01:26.913Z,7.60
2019-04-20T15:03:59.819Z,8.07
2019-04-20T15:06:27.471Z,7.72
2019-04-20T15:08:56.675Z,8.40
2019-04-20T15:11:25.485Z,8.23
2019-04-20T15:13:54.143Z,8.20
2019-04-20T15:16:22.968Z,9.08
2019-04-20T15:19:09.792Z,8.90
2019-04-20T15:21:39.649Z,9.10
2019-04-20T15:24:09.355Z,8.48
2019-04-20T15:26:38.507Z,9.18
2019-04-20T15:29:08.422Z,9.63
2019-04-20T15:31:38.418Z,8.25
2019-04-20T15:34:08.815Z,8.95
2019-04-20T15:36:38.135Z,8.53
2019-04-20T15:39:09.300Z,9.13
2019-04-20T15:41:39.137Z,9.30
2019-04-20T15:44:09.290Z,9.00
2019-04-20T15:46:38.811Z,8.90
2019-04-20T15:49:08.575Z,9.20
2019-04-20T15:51:37.539Z,9.48
2019-04-20T15:54:07.528Z,9.63
2019-04-20T15:56:37.602Z,9.85
2019-04-20T15:59:06.508Z,9.33
2019-04-20T16:01:42.180Z,9.00
2019-04-20T16:04:37.288Z,8.40
2019-04-20T16:07:03.423Z,8.67
2019-04-20T16:09:33.666Z,9.00
2019-04-20T16:12:02.742Z,8.43
2019-04-20T16:14:31.390Z,9.95
2019-04-20T16:17:03.972Z,9.55
2019-04-20T16:19:40.690Z,11.70
2019-04-20T16:22:01.808Z,11.57
2019-04-20T16:24:34.646Z,8.53
2019-04-20T16:27:21.536Z,7.83
2019-04-20T16:29:51.609Z,8.05
2019-04-20T16:32:20.678Z,7.95
2019-04-20T16:34:50.692Z,7.45
2019-04-20T16:37:20.178Z,7.58
2019-04-20T16:39:50.329Z,7.60
2019-04-20T16:42:20.284Z,7.62
2019-04-20T16:44:49.453Z,8.25
2019-04-20T16:47:18.449Z,7.45
2019-04-20T16:49:48.718Z,7.58
2019-04-20T16:52:18.946Z,7.70
2019-04-20T16:54:48.193Z,7.67
2019-04-20T16:57:17.266Z,7.58
2019-04-20T16:59:50.524Z,6.62
2019-04-20T17:02:17.877Z,7.05
2019-04-20T17:04:47.485Z,6.35
2019-04-20T17:07:26.921Z,6.75
2019-04-20T17:09:55.970Z,7.50
2019-04-20T17:12:25.810Z,6.90
2019-04-20T17:14:55.762Z,6.92
2019-04-20T17:17:25.334Z,6.72
2019-04-20T17:19:55.407Z,6.62
2019-04-20T17:22:25.488Z,6.70
2019-04-20T17:24:55.555Z,6.60
2019-04-20T17:27:44.704Z,6.70
2019-04-20T17:30:47.843Z,6.72
2019-04-20T17:33:24.060Z,6.78
2019-04-20T17:36:03.060Z,7.40
2019-04-20T17:38:22.599Z,6.75
2019-04-20T17:41:08.761Z,6.95
2019-04-20T17:43:29.206Z,6.30
2019-04-20T17:45:59.613Z,5.95
2019-04-20T17:48:34.962Z,6.30
2019-04-20T17:51:13.949Z,6.17
2019-04-20T17:53:56.786Z,6.83
2019-04-20T17:56:22.467Z,6.75
2019-04-20T17:58:52.225Z,6.05
2019-04-20T18:01:47.837Z,6.55
2019-04-20T18:04:38.286Z,6.50
2019-04-20T18:06:52.576Z,5.95
2019-04-20T18:09:34.814Z,5.60
2019-04-20T18:11:44.907Z,6.12
2019-04-20T18:14:28.603Z,5.72
2019-04-20T18:16:58.059Z,5.35
2019-04-20T18:19:22.295Z,5.60
2019-04-20T18:21:53.807Z,5.80
2019-04-20T18:24:43.585Z,5.40
2019-04-20T18:27:23.312Z,6.05
2019-04-20T18:29:42.990Z,6.03
2019-04-20T18:32:05.130Z,5.50
2019-04-20T18:34:45.875Z,6.53
2019-04-20T18:37:16.907Z,5.20
2019-04-20T18:39:53.438Z,5.00
2019-04-20T18:42:21.289Z,5.17
2019-04-20T18:45:03.913Z,4.72
2019-04-20T18:47:37.292Z,5.22
2019-04-20T18:49:54.952Z,4.67
2019-04-20T18:52:15.760Z,4.33
2019-04-20T18:54:47.877Z,4.53
2019-04-20T18:57:21.479Z,4.17
2019-04-20T18:59:50.913Z,4.35
2019-04-20T19:02:23.082Z,4.50
2019-04-20T19:04:48.100Z,4.33
2019-04-20T19:07:17.535Z,4.22
2019-04-20T19:09:46.701Z,3.98
2019-04-20T19:12:16.529Z,3.92
2019-04-20T19:15:13.164Z,4.45
2019-04-20T19:17:52.167Z,3.80
2019-04-20T19:20:22.103Z,4.00
2019-04-20T19:22:50.733Z,4.35
2019-04-20T19:25:27.373Z,3.70
2019-04-20T19:27:54.685Z,3.72
2019-04-20T19:30:31.146Z,3.67
2019-04-20T19:33:10.846Z,4.17
2019-04-20T19:35:33.664Z,4.10
2019-04-20T19:38:03.353Z,4.40
2019-04-20T19:40:33.651Z,4.40
2019-04-20T19:43:06.993Z,4.00
2019-04-20T19:45:46.629Z,5.17
2019-04-20T19:48:12.278Z,4.90
2019-04-20T19:50:53.769Z,5.37
2019-04-20T19:53:21.158Z,5.20
2019-04-20T19:55:41.226Z,6.03
2019-04-20T19:58:08.488Z,5.60
2019-04-20T20:00:51.244Z,5.65
2019-04-20T20:03:19.733Z,6.22
2019-04-20T20:05:50.909Z,5.28
2019-04-20T20:08:23.632Z,4.80
2019-04-20T20:10:50.627Z,5.35
2019-04-20T20:13:20.424Z,5.70
2019-04-20T20:15:57.669Z,6.03
2019-04-20T20:18:35.349Z,5.65
2019-04-20T20:21:04.765Z,6.22
2019-04-20T20:23:20.621Z,6.40
2019-04-20T20:25:50.645Z,6.35
2019-04-20T20:28:30.509Z,6.03
2019-04-20T20:31:03.365Z,6.47
2019-04-20T20:33:39.253Z,5.45
2019-04-20T20:36:02.230Z,6.17
2019-04-20T20:38:28.008Z,6.35
2019-04-20T20:41:02.575Z,5.22
2019-04-20T20:43:39.861Z,5.10
2019-04-20T20:46:05.370Z,7.00
2019-04-20T20:48:37.963Z,6.45
2019-04-20T20:51:12.496Z,5.35
2019-04-20T20:53:41.381Z,5.60
2019-04-20T20:56:06.332Z,5.60
2019-04-20T20:58:36.161Z,5.58
2019-04-20T21:01:04.547Z,5.78
2019-04-20T21:03:32.270Z,6.08
2019-04-20T21:05:56.046Z,5.67
2019-04-20T21:08:25.831Z,4.97
2019-04-20T21:10:54.815Z,5.40
2019-04-20T21:13:25.938Z,6.25
2019-04-20T21:16:02.597Z,5.20
2019-04-20T21:18:43.670Z,5.37
2019-04-20T21:21:15.036Z,5.67
2019-04-20T21:23:40.995Z,5.85
2019-04-20T21:26:12.830Z,5.83
2019-04-20T21:28:40.149Z,5.67
2019-04-20T21:31:16.314Z,5.87
2019-04-20T21:33:40.970Z,6.62
2019-04-20T21:36:13.557Z,6.55
2019-04-20T21:38:42.740Z,5.60
2019-04-20T21:41:15.020Z,6.35
2019-04-20T21:43:44.406Z,6.87
2019-04-20T21:46:13.461Z,6.03
2019-04-20T21:48:58.820Z,6.03
2019-04-20T21:51:24.392Z,6.03
2019-04-20T21:53:44.162Z,6.35
2019-04-20T21:56:13.164Z,7.40
2019-04-20T21:58:49.462Z,6.25
2019-04-20T22:01:22.138Z,7.70
2019-04-20T22:03:44.918Z,7.03
2019-04-20T22:06:14.142Z,6.03
2019-04-20T22:08:49.386Z,7.45
2019-04-20T22:11:15.671Z,7.00
2019-04-20T22:13:46.423Z,8.73
2019-04-20T22:16:16.685Z,9.08
2019-04-20T22:18:50.977Z,7.33
2019-04-20T22:21:22.451Z,7.65
2019-04-20T22:24:01.814Z,6.55
2019-04-20T22:26:25.392Z,7.65
2019-04-20T22:28:47.933Z,8.10
2019-04-20T22:31:18.352Z,7.83
2019-04-20T22:33:48.694Z,8.18
2019-04-20T22:36:18.198Z,7.92
2019-04-20T22:39:07.528Z,8.05
2019-04-20T22:41:40.772Z,8.05
2019-04-20T22:44:15.452Z,8.35
2019-04-20T22:46:42.183Z,7.72
2019-04-20T22:49:29.452Z,8.05
2019-04-20T22:51:53.151Z,7.40
2019-04-20T22:54:28.015Z,7.47
2019-04-20T22:56:55.006Z,8.48
2019-04-20T22:59:16.534Z,8.93
2019-04-20T23:01:48.484Z,8.00
2019-04-20T23:04:15.008Z,7.83
2019-04-20T23:06:49.553Z,7.92
2019-04-20T23:09:16.855Z,7.92
2019-04-20T23:11:45.687Z,7.95
2019-04-20T23:14:14.505Z,8.93
2019-04-20T23:16:48.366Z,7.53
2019-04-20T23:19:14.229Z,8.53
2019-04-20T23:21:49.614Z,8.18
2019-04-20T23:24:15.351Z,8.15
2019-04-20T23:26:45.940Z,9.28
2019-04-20T23:29:15.378Z,10.88
2019-04-20T23:31:49.291Z,10.60
2019-04-20T23:34:20.140Z,10.43
2019-04-20T23:36:47.636Z,10.93
2019-04-20T23:39:16.903Z,10.35
2019-04-20T23:41:53.644Z,9.75
2019-04-20T23:44:21.047Z,8.55
2019-04-20T23:47:05.361Z,9.60
2019-04-20T23:49:53.525Z,9.20
2019-04-20T23:52:30.708Z,9.48
2019-04-20T23:54:37.213Z,9.98
2019-04-20T23:57:05.932Z,8.78
2019-04-20T23:59:39.559Z,9.45
